Terminal Aerodrome Forecast
Issued by NWS

Home | Current Version | Previous Version | Graphics & Text | Print | Product List | Glossary On
Versions: 1 2 3 4 5 6 7 8 9 10 11 12 13
000
FTUS43 KUNR 231120
TAFGCC
TAF
KGCC 231120Z 2312/2412 16012KT P6SM SCT150
     FM231600 33010KT P6SM BKN100
     FM240100 35007KT P6SM BKN060=

USA.gov is the U.S. government's official web portal to all federal, state and local government web resources and services.